Time;durP1;ratioP1;P1;durP2;ratioP2;P2;SDS_P1;SDS_P2;PMS_P1;PMS_P2;Temp;Humidity;BMP_temperature;BMP_pressure;BME280_temperature;BME280_humidity;BME280_pressure;Samples;Min_cycle;Max_cycle;Signal;HPM_P1;HPM_P2
2023/10/07 00:00:32;;;;;;;1.70;0.80;;;;;;;7.61;100.00;100452.45;108815;1256;72518;-51
2023/10/07 00:03:00;;;;;;;4.10;1.20;;;;;;;7.64;100.00;100459.91;108862;1256;67164;-52
2023/10/07 00:05:37;;;;;;;6.20;1.10;;;;;;;7.67;100.00;100457.33;105483;1256;72718;-49
2023/10/07 00:08:08;;;;;;;3.80;0.80;;;;;;;7.69;100.00;100446.53;104735;1256;60458;-50
2023/10/07 00:10:37;;;;;;;2.40;0.70;;;;;;;7.70;100.00;100437.77;105855;1260;61048;-50
2023/10/07 00:13:09;;;;;;;2.40;0.80;;;;;;;7.72;100.00;100426.81;107127;1256;72954;-51
2023/10/07 00:15:37;;;;;;;2.60;1.00;;;;;;;7.75;100.00;100421.91;105142;1257;66078;-48
2023/10/07 00:18:13;;;;;;;2.80;0.80;;;;;;;7.77;100.00;100418.45;104608;1256;71441;-49
2023/10/07 00:20:49;;;;;;;2.00;0.80;;;;;;;7.79;100.00;100410.90;104767;1261;60395;-51
2023/10/07 00:23:24;;;;;;;3.60;1.00;;;;;;;7.81;100.00;100406.91;104794;1255;59960;-51
2023/10/07 00:25:53;;;;;;;2.40;1.00;;;;;;;7.83;100.00;100397.92;104686;1256;72635;-48
2023/10/07 00:28:35;;;;;;;3.90;0.80;;;;;;;7.85;100.00;100388.56;104748;1259;67043;-50
2023/10/07 00:31:06;;;;;;;1.60;0.80;;;;;;;7.88;100.00;100390.13;104828;1257;73181;-50
2023/10/07 00:33:50;;;;;;;3.30;0.80;;;;;;;7.88;100.00;100391.71;105179;1257;61168;-50
2023/10/07 00:39:08;;;;;;;1.20;0.80;;;;;;;7.88;100.00;100379.91;104672;1256;72699;-51
2023/10/07 00:41:57;;;;;;;;;;;;;;;7.89;100.00;100374.02;105106;1256;65979;-49
2023/10/07 00:44:35;;;;;;;4.60;0.80;;;;;;;7.89;100.00;100375.80;104691;1261;72772;-49
2023/10/07 00:52:40;;;;;;;3.90;0.80;;;;;;;7.86;100.00;100362.83;104805;1261;73864;-53
2023/10/07 00:55:10;;;;;;;3.70;0.90;;;;;;;7.84;100.00;100364.30;104605;1256;66976;-50
2023/10/07 00:58:27;;;;;;;3.50;1.70;;;;;;;7.86;100.00;100360.31;101768;1292;600674;-48
2023/10/07 01:00:56;;;;;;;4.40;0.80;;;;;;;7.86;100.00;100349.79;103969;1271;62224;-50
2023/10/07 01:03:31;;;;;;;1.90;0.80;;;;;;;7.87;100.00;100346.16;104244;1267;59361;-45
2023/10/07 01:08:29;;;;;;;1.60;0.70;;;;;;;7.93;100.00;100342.95;104092;1270;68036;-50
2023/10/07 01:11:46;;;;;;;2.40;1.10;;;;;;;7.97;100.00;100342.14;103692;1269;163667;-51
2023/10/07 01:13:51;;;;;;;3.00;0.80;;;;;;;8.01;100.00;100340.04;104049;1270;59288;-51
2023/10/07 01:16:41;;;;;;;4.90;1.00;;;;;;;8.03;100.00;100331.77;104198;1269;59290;-52
2023/10/07 01:22:09;;;;;;;3.10;0.90;;;;;;;8.05;100.00;100316.34;104144;1270;65829;-49
2023/10/07 01:30:01;;;;;;;4.10;1.10;;;;;;;8.04;100.00;100303.88;104036;1267;61077;-52
2023/10/07 01:32:32;;;;;;;;;;;;;;;8.03;100.00;100299.97;104241;1268;72971;-52
2023/10/07 01:35:10;;;;;;;1.60;0.70;;;;;;;8.01;100.00;100301.09;104206;1269;65922;-52
2023/10/07 01:37:43;;;;;;;7.30;1.40;;;;;;;7.99;100.00;100296.86;104412;1269;71528;-51
2023/10/07 01:40:15;;;;;;;2.40;0.80;;;;;;;7.98;100.00;100285.64;104134;1270;59951;-51
2023/10/07 01:42:43;;;;;;;3.40;0.90;;;;;;;7.97;100.00;100286.20;104347;1267;60080;-53
2023/10/07 01:45:20;;;;;;;4.60;0.80;;;;;;;7.97;100.00;100273.34;104160;1269;71844;-51
2023/10/07 01:47:49;;;;;;;3.80;0.90;;;;;;;7.99;100.00;100264.00;104609;1267;67314;-53
2023/10/07 01:50:18;;;;;;;3.20;0.80;;;;;;;8.02;100.00;100254.42;104565;1266;71274;-52
2023/10/07 01:52:48;;;;;;;4.50;0.80;;;;;;;8.05;100.00;100247.55;105388;1272;59762;-52
2023/10/07 01:55:16;;;;;;;2.00;0.80;;;;;;;8.08;100.00;100242.81;104281;1270;60498;-52
2023/10/07 01:57:45;;;;;;;3.10;0.90;;;;;;;8.10;100.00;100228.60;104136;1267;73519;-52
2023/10/07 02:00:13;;;;;;;5.80;0.90;;;;;;;8.13;100.00;100213.14;104037;1267;65507;-53
2023/10/07 02:02:49;;;;;;;2.40;0.90;;;;;;;8.15;100.00;100205.95;104145;1269;71771;-52
2023/10/07 02:05:25;;;;;;;3.00;1.30;;;;;;;8.17;100.00;100205.89;103864;1270;60570;-52
2023/10/07 02:07:54;;;;;;;3.80;0.80;;;;;;;8.17;100.00;100199.23;104064;1279;59704;-52
2023/10/07 02:10:23;;;;;;;1.50;0.90;;;;;;;8.18;100.00;100200.13;104030;1267;71939;-52
2023/10/07 02:12:53;;;;;;;4.90;1.20;;;;;;;8.18;100.00;100193.33;103938;1270;66759;-50
2023/10/07 02:15:20;;;;;;;4.10;1.20;;;;;;;8.18;100.00;100196.55;105097;1269;72715;-53
2023/10/07 02:17:48;;;;;;;5.40;0.90;;;;;;;8.17;100.00;100209.81;104066;1270;61916;-53
2023/10/07 02:20:27;;;;;;;4.90;1.10;;;;;;;8.17;100.00;100221.44;104320;1270;60049;-53
2023/10/07 02:22:55;;;;;;;2.00;0.90;;;;;;;8.15;100.00;100221.67;103995;1267;73661;-52
2023/10/07 02:25:29;;;;;;;6.60;1.00;;;;;;;8.15;100.00;100210.42;104858;1267;65829;-53
2023/10/07 02:27:56;;;;;;;2.00;1.10;;;;;;;8.16;100.00;100208.95;104024;1271;71476;-52
2023/10/07 02:30:25;;;;;;;5.60;1.10;;;;;;;8.18;100.00;100197.24;104120;1268;60906;-53
2023/10/07 02:32:54;;;;;;;6.50;1.10;;;;;;;8.21;100.00;100187.70;108165;1267;58844;-53
2023/10/07 02:35:24;;;;;;;3.40;0.80;;;;;;;8.23;100.00;100181.02;108304;1266;73179;-53
2023/10/07 02:37:52;;;;;;;6.30;1.20;;;;;;;8.23;100.00;100171.55;108244;1263;67656;-52
2023/10/07 02:40:22;;;;;;;2.10;0.90;;;;;;;8.24;100.00;100165.45;108187;1268;71520;-52
2023/10/07 02:42:51;;;;;;;6.00;1.10;;;;;;;8.25;100.00;100164.13;108476;1263;61317;-51
2023/10/07 02:48:00;;;;;;;1.90;1.00;;;;;;;8.28;100.00;100158.66;108374;1263;73458;-52
2023/10/07 02:50:31;;;;;;;3.30;1.30;;;;;;;8.29;100.00;100160.06;108452;1261;65650;-52
2023/10/07 02:53:02;;;;;;;4.80;1.10;;;;;;;8.30;100.00;100148.96;108470;1264;70688;-52
2023/10/07 02:55:38;;;;;;;4.70;1.70;;;;;;;8.31;100.00;100143.77;108672;1257;61658;-52
2023/10/07 02:58:07;;;;;;;3.60;1.30;;;;;;;8.31;100.00;100139.84;108625;1257;60738;-51
2023/10/07 03:00:36;;;;;;;5.40;1.00;;;;;;;8.31;100.00;100130.53;108763;1256;73086;-51
2023/10/07 03:06:00;;;;;;;3.50;1.10;;;;;;;8.35;100.00;100107.52;108627;1256;71206;-52
2023/10/07 03:08:40;;;;;;;5.30;1.40;;;;;;;8.39;100.00;100103.98;108659;1257;60779;-52
2023/10/07 03:11:12;;;;;;;3.50;0.90;;;;;;;8.44;100.00;100102.74;108644;1260;60084;-52
2023/10/07 03:13:40;;;;;;;7.80;0.90;;;;;;;8.49;100.00;100100.63;106192;1257;71891;-51
2023/10/07 03:24:29;;;;;;;2.10;1.10;;;;;;;8.63;100.00;100076.14;105486;1267;60944;-52
2023/10/07 03:27:05;;;;;;;3.10;1.10;;;;;;;8.64;100.00;100061.44;104568;1257;75250;-52
2023/10/07 03:29:36;;;;;;;6.30;1.50;;;;;;;8.65;100.00;100052.98;104376;1264;66990;-53
2023/10/07 03:32:12;;;;;;;4.40;1.20;;;;;;;8.66;100.00;100049.22;104578;1263;73127;-53
2023/10/07 03:34:45;;;;;;;4.90;1.00;;;;;;;8.66;100.00;100045.10;104287;1258;61679;-51
2023/10/07 03:42:23;;;;;;;2.80;0.90;;;;;;;8.71;100.00;100025.40;104643;1258;66024;-52
2023/10/07 03:44:51;;;;;;;2.50;0.90;;;;;;;8.73;100.00;100028.73;104490;1264;71339;-51
2023/10/07 03:47:18;;;;;;;2.90;0.80;;;;;;;8.77;100.00;100032.17;104616;1258;60669;-52
2023/10/07 03:49:52;;;;;;;12.60;1.40;;;;;;;8.81;100.00;100026.65;104222;1264;60726;-51
2023/10/07 03:52:21;;;;;;;2.80;0.90;;;;;;;8.86;100.00;100019.13;106725;1262;72055;-50
2023/10/07 03:54:48;;;;;;;4.30;1.20;;;;;;;8.89;100.00;100013.46;104641;1263;65759;-50
2023/10/07 03:57:18;;;;;;;2.90;1.20;;;;;;;8.93;100.00;100009.54;104527;1259;73107;-52
2023/10/07 03:59:46;;;;;;;8.70;1.10;;;;;;;8.96;100.00;100003.14;104428;1263;59746;-51
2023/10/07 04:05:23;;;;;;;2.60;0.90;;;;;;;9.00;100.00;99996.96;104605;1258;71834;-53
2023/10/07 04:07:50;;;;;;;3.00;1.30;;;;;;;9.00;100.00;99989.23;104965;1261;66157;-52
2023/10/07 04:10:31;;;;;;;3.40;0.90;;;;;;;9.00;100.00;99978.54;104511;1257;72583;-49
2023/10/07 04:12:58;;;;;;;3.70;1.00;;;;;;;8.99;100.00;99974.09;104782;1260;60803;-52
2023/10/07 04:15:30;;;;;;;1.90;1.10;;;;;;;8.99;100.00;99967.98;104339;1258;60706;-53
2023/10/07 04:17:59;;;;;;;3.20;1.30;;;;;;;9.01;100.00;99958.45;104672;1270;73039;-50
2023/10/07 04:20:43;;;;;;;3.10;0.90;;;;;;;9.03;100.00;99955.46;104715;1257;65007;-52
2023/10/07 04:23:10;;;;;;;2.70;1.20;;;;;;;9.06;100.00;99950.70;104564;1260;73305;-51
2023/10/07 04:25:44;;;;;;;3.70;1.00;;;;;;;9.09;100.00;99949.52;104721;1264;59829;-53
2023/10/07 04:28:13;;;;;;;3.20;0.90;;;;;;;9.11;100.00;99931.52;105167;1257;60713;-51
2023/10/07 04:30:46;;;;;;;2.30;1.10;;;;;;;9.13;100.00;99924.13;104813;1263;73036;-52
2023/10/07 04:33:17;;;;;;;4.50;1.70;;;;;;;9.13;100.00;99915.50;104442;1257;66311;-53
2023/10/07 04:35:50;;;;;;;4.80;0.90;;;;;;;9.14;100.00;99912.06;106298;1262;71465;-50
2023/10/07 04:43:48;;;;;;;3.90;1.20;;;;;;;9.14;100.00;99904.02;104317;1263;71796;-53
2023/10/07 04:46:23;;;;;;;3.90;1.00;;;;;;;9.15;100.00;99896.11;106157;1260;65802;-51
2023/10/07 04:49:12;;;;;;;3.60;1.70;;;;;;;9.18;100.00;99887.39;104515;1264;72775;-52
2023/10/07 04:54:11;;;;;;;1.80;1.00;;;;;;;9.24;100.00;99883.02;105935;1257;59828;-52
2023/10/07 04:56:39;;;;;;;4.90;1.20;;;;;;;9.28;100.00;99872.30;106115;1258;73553;-53
2023/10/07 04:59:09;;;;;;;2.60;0.90;;;;;;;9.31;100.00;99872.35;105207;1260;67028;-51
2023/10/07 05:01:41;;;;;;;2.90;0.90;;;;;;;9.34;100.00;99862.75;104395;1260;72284;-52
2023/10/07 05:04:09;;;;;;;3.70;1.00;;;;;;;9.36;100.00;99861.20;104467;1257;59575;-51
2023/10/07 05:06:40;;;;;;;2.50;1.10;;;;;;;9.39;100.00;99855.20;105546;1262;59605;-52
2023/10/07 05:09:09;;;;;;;4.80;1.00;;;;;;;9.40;100.00;99851.55;104539;1257;71847;-52
2023/10/07 05:11:38;;;;;;;2.30;0.90;;;;;;;9.41;100.00;99843.10;106426;1257;65713;-53
2023/10/07 05:14:07;;;;;;;2.40;0.90;;;;;;;9.43;100.00;99844.27;104380;1260;71273;-53
2023/10/07 05:16:39;;;;;;;5.40;1.10;;;;;;;9.45;100.00;99842.54;104997;1260;60612;-53
2023/10/07 05:19:10;;;;;;;3.80;1.20;;;;;;;9.49;100.00;99838.63;104925;1254;60543;-51
2023/10/07 05:21:37;;;;;;;2.90;0.90;;;;;;;9.54;100.00;99837.15;104873;1254;73002;-54
2023/10/07 05:24:09;;;;;;;2.00;0.90;;;;;;;9.59;100.00;99830.70;104814;1254;65728;-53
2023/10/07 05:26:40;;;;;;;2.60;0.90;;;;;;;9.64;100.00;99822.93;105045;1254;73581;-50
2023/10/07 05:29:12;;;;;;;3.10;1.10;;;;;;;9.68;100.00;99820.26;104711;1258;60516;-53
2023/10/07 05:31:42;;;;;;;1.90;1.00;;;;;;;9.72;100.00;99814.87;104978;1257;60536;-54
2023/10/07 05:34:10;;;;;;;5.40;1.70;;;;;;;9.76;100.00;99809.70;106057;1257;74159;-53
2023/10/07 05:36:39;;;;;;;3.50;1.10;;;;;;;9.79;100.00;99802.02;104938;1259;67122;-51
2023/10/07 05:39:13;;;;;;;6.50;1.90;;;;;;;9.83;100.00;99787.70;105691;1259;73193;-53
2023/10/07 05:41:41;;;;;;;8.30;1.50;;;;;;;9.86;100.00;99785.73;108872;1254;60477;-54
2023/10/07 05:44:14;;;;;;;3.40;1.20;;;;;;;9.92;100.00;99780.30;108401;1254;59437;-54
2023/10/07 05:46:42;;;;;;;8.90;1.80;;;;;;;10.01;100.00;99771.45;104920;1255;73922;-53
2023/10/07 05:49:10;;;;;;;6.20;1.10;;;;;;;10.10;100.00;99763.34;108845;1254;65703;-54
2023/10/07 05:51:37;;;;;;;3.20;1.00;;;;;;;10.16;100.00;99756.61;108945;1254;72673;-54
2023/10/07 05:54:05;;;;;;;6.00;0.90;;;;;;;10.22;100.00;99749.35;108959;1253;61884;-54
2023/10/07 05:56:32;;;;;;;5.20;1.00;;;;;;;10.28;100.00;99746.19;108895;1254;60095;-54
2023/10/07 05:59:01;;;;;;;4.80;1.40;;;;;;;10.35;100.00;99736.73;109017;1254;73918;-52
2023/10/07 06:01:33;;;;;;;6.10;1.00;;;;;;;10.41;100.00;99734.65;108910;1254;66124;-51
2023/10/07 06:04:01;;;;;;;7.20;1.00;;;;;;;10.45;100.00;99733.36;108932;1254;71739;-52
2023/10/07 06:06:31;;;;;;;2.10;1.00;;;;;;;10.49;100.00;99727.44;108976;1254;60128;-52
2023/10/07 06:09:02;;;;;;;3.40;1.00;;;;;;;10.52;100.00;99728.73;108917;1254;58738;-52
2023/10/07 06:11:32;;;;;;;6.50;1.40;;;;;;;10.55;100.00;99730.20;108967;1254;71521;-52
2023/10/07 06:13:59;;;;;;;2.30;1.10;;;;;;;10.55;100.00;99724.82;108906;1254;65927;-51
2023/10/07 06:16:29;;;;;;;1.50;0.90;;;;;;;10.55;100.00;99722.62;108185;1257;71372;-51
2023/10/07 06:18:58;;;;;;;12.50;1.60;;;;;;;10.56;100.00;99716.15;105631;1254;62258;-52
2023/10/07 06:21:27;;;;;;;4.20;0.90;;;;;;;10.58;100.00;99708.15;107192;1259;60428;-51
2023/10/07 06:23:58;;;;;;;6.60;1.00;;;;;;;10.60;100.00;99698.88;104990;1254;74681;-52
2023/10/07 06:26:30;;;;;;;6.80;1.10;;;;;;;10.60;100.00;99694.05;104995;1254;65656;-53
2023/10/07 06:29:05;;;;;;;3.70;0.90;;;;;;;10.64;100.00;99686.17;104876;1259;72755;-51
2023/10/07 06:31:34;;;;;;;3.00;0.80;;;;;;;10.68;100.00;99687.56;105058;1255;60693;-52
2023/10/07 06:34:11;;;;;;;4.00;1.30;;;;;;;10.71;100.00;99690.29;108757;1254;59492;-53
2023/10/07 06:36:40;;;;;;;6.80;1.40;;;;;;;10.73;100.00;99686.77;105727;1256;73940;-51
2023/10/07 06:39:08;;;;;;;5.00;1.00;;;;;;;10.73;100.00;99689.81;105868;1259;67307;-52
2023/10/07 06:41:35;;;;;;;7.90;1.40;;;;;;;10.77;100.00;99681.73;104851;1254;73595;-51
2023/10/07 06:44:03;;;;;;;2.40;1.10;;;;;;;10.78;100.00;99685.63;104941;1255;61033;-53
2023/10/07 06:46:44;;;;;;;2.60;1.10;;;;;;;10.81;100.00;99681.33;108831;1254;58838;-53
2023/10/07 06:49:19;;;;;;;5.10;2.00;;;;;;;10.84;100.00;99682.80;106268;1256;73971;-52
2023/10/07 06:51:56;;;;;;;4.60;1.20;;;;;;;10.86;100.00;99680.17;104797;1259;65645;-53
2023/10/07 06:54:26;;;;;;;3.60;1.10;;;;;;;10.89;100.00;99679.15;106633;1256;71484;-51
2023/10/07 06:56:54;;;;;;;6.40;1.00;;;;;;;10.90;100.00;99673.15;105081;1254;63465;-52
2023/10/07 06:59:27;;;;;;;2.80;0.90;;;;;;;10.91;100.00;99670.20;104896;1259;60478;-51
2023/10/07 07:01:56;;;;;;;2.30;1.00;;;;;;;10.92;100.00;99673.05;104828;1260;72754;-52
2023/10/07 07:04:25;;;;;;;2.60;1.20;;;;;;;10.93;100.00;99674.23;104869;1254;65719;-50
2023/10/07 07:07:10;;;;;;;3.10;0.90;;;;;;;10.95;100.00;99674.52;104594;1256;71458;-52
2023/10/07 07:12:16;;;;;;;2.00;0.80;;;;;;;10.99;100.00;99666.39;104555;1257;60345;-54
2023/10/07 07:14:51;;;;;;;1.80;0.90;;;;;;;11.00;100.00;99658.79;108947;1254;74316;-52
2023/10/07 07:17:29;;;;;;;3.70;0.80;;;;;;;11.03;100.00;99660.66;105176;1257;69720;-53
2023/10/07 07:22:45;;;;;;;2.00;0.70;;;;;;;11.06;100.00;99644.20;104639;1254;60722;-51
2023/10/07 07:27:53;;;;;;;2.50;0.90;;;;;;;11.06;100.00;99618.68;104731;1254;73808;-50
2023/10/07 07:30:30;;;;;;;1.70;0.80;;;;;;;11.07;100.00;99613.90;104817;1254;65740;-51
2023/10/07 07:33:07;;;;;;;2.10;0.80;;;;;;;11.08;100.00;99612.45;105058;1256;71485;-52
2023/10/07 07:35:39;;;;;;;2.20;0.70;;;;;;;11.08;100.00;99602.02;104780;1254;62265;-51
2023/10/07 07:38:26;;;;;;;2.50;0.80;;;;;;;11.08;100.00;99601.46;105363;1255;60415;-49
2023/10/07 07:41:05;;;;;;;2.40;0.80;;;;;;;11.09;100.00;99595.34;105247;1254;72594;-51
2023/10/07 07:43:34;;;;;;;2.00;0.80;;;;;;;11.07;100.00;99591.99;104993;1254;64760;-51
2023/10/07 07:46:18;;;;;;;4.80;0.90;;;;;;;11.07;100.00;99590.95;105147;1254;72735;-52
2023/10/07 07:48:48;;;;;;;2.90;0.60;;;;;;;11.07;100.00;99588.42;104968;1257;61643;-51
2023/10/07 07:51:20;;;;;;;4.00;0.60;;;;;;;11.06;100.00;99592.40;105117;1256;60441;-52
2023/10/07 07:53:48;;;;;;;13.40;1.00;;;;;;;11.05;100.00;99593.39;105101;1254;74871;-49
2023/10/07 07:56:15;;;;;;;3.80;0.70;;;;;;;11.05;100.00;99589.46;105251;1254;66084;-51
2023/10/07 07:58:52;;;;;;;1.70;0.80;;;;;;;11.06;100.00;99586.16;105427;1256;71475;-50
2023/10/07 08:01:28;;;;;;;1.20;0.70;;;;;;;11.05;100.00;99583.36;104809;1259;61023;-50
2023/10/07 08:03:59;;;;;;;5.30;1.30;;;;;;;11.04;100.00;99582.86;104763;1254;60479;-52
2023/10/07 08:06:27;;;;;;;2.00;0.70;;;;;;;11.02;100.00;99574.85;104794;1256;72628;-51
2023/10/07 08:08:55;;;;;;;1.60;0.70;;;;;;;11.02;100.00;99565.73;105306;1254;65668;-51
2023/10/07 08:11:22;;;;;;;2.50;1.00;;;;;;;11.01;100.00;99560.02;104819;1254;73185;-52
2023/10/07 08:13:50;;;;;;;2.20;0.80;;;;;;;10.98;100.00;99555.64;105055;1257;60513;-51
2023/10/07 08:16:20;;;;;;;1.00;0.80;;;;;;;10.97;100.00;99553.55;104798;1254;60455;-51
2023/10/07 08:18:54;;;;;;;1.70;0.80;;;;;;;10.96;100.00;99548.45;105527;1256;73902;-50
2023/10/07 08:21:29;;;;;;;2.40;0.80;;;;;;;10.95;100.00;99538.98;105142;1254;65874;-52
2023/10/07 08:24:01;;;;;;;2.50;1.00;;;;;;;10.94;100.00;99524.83;104716;1256;71147;-52
2023/10/07 08:26:34;;;;;;;3.20;0.70;;;;;;;10.96;100.00;99520.08;104621;1254;61278;-51
2023/10/07 08:29:03;;;;;;;3.70;0.90;;;;;;;10.98;100.00;99512.92;105371;1253;60589;-52
2023/10/07 08:31:43;;;;;;;1.90;0.70;;;;;;;11.01;100.00;99513.68;105792;1254;72672;-51
2023/10/07 08:34:11;;;;;;;5.90;0.90;;;;;;;11.04;100.00;99515.14;105849;1254;67426;-51
2023/10/07 08:36:43;;;;;;;3.80;0.90;;;;;;;11.06;100.00;99500.69;105747;1255;71506;-51
2023/10/07 08:39:11;;;;;;;1.50;0.70;;;;;;;11.06;100.00;99492.38;104903;1254;60565;-51
2023/10/07 08:41:47;;;;;;;1.90;0.80;;;;;;;11.06;100.00;99484.92;106588;1256;60414;-50
2023/10/07 08:44:15;;;;;;;2.00;0.70;;;;;;;11.06;100.00;99480.95;105928;1254;72647;-52
2023/10/07 08:46:52;;;;;;;4.00;1.40;;;;;;;11.06;100.00;99476.27;104895;1253;65706;-50
2023/10/07 08:49:26;;;;;;;2.60;0.80;;;;;;;11.07;100.00;99485.16;108897;1254;71688;-51
2023/10/07 08:51:54;;;;;;;3.10;0.80;;;;;;;11.08;100.00;99482.41;108919;1253;61717;-50
2023/10/07 08:54:26;;;;;;;2.00;0.90;;;;;;;11.10;100.00;99477.48;108977;1254;58738;-51
2023/10/07 08:56:57;;;;;;;1.60;0.80;;;;;;;11.13;100.00;99468.69;107269;1253;73970;-53
2023/10/07 08:59:30;;;;;;;2.00;0.70;;;;;;;11.17;100.00;99458.39;108866;1254;65978;-51
2023/10/07 09:02:00;;;;;;;2.40;0.90;;;;;;;11.21;100.00;99463.91;108950;1257;72922;-50
2023/10/07 09:04:33;;;;;;;4.20;0.90;;;;;;;11.27;100.00;99453.73;108976;1254;60479;-51
2023/10/07 09:07:08;;;;;;;4.30;0.80;;;;;;;11.32;100.00;99449.11;108986;1254;59909;-52
2023/10/07 09:09:38;;;;;;;;;;;;;;;11.39;100.00;99447.63;108839;1254;73916;-52
2023/10/07 09:12:18;;;;;;;2.90;1.00;;;;;;;11.47;100.00;99443.61;108867;1254;67702;-51
2023/10/07 09:14:52;;;;;;;1.40;0.90;;;;;;;11.54;100.00;99440.66;108907;1254;72721;-52
2023/10/07 09:17:23;;;;;;;;;;;;;;;11.62;100.00;99440.20;105150;1256;60769;-51
2023/10/07 09:19:53;;;;;;;3.80;0.90;;;;;;;11.69;100.00;99438.39;104845;1254;60556;-50
2023/10/07 09:22:24;;;;;;;6.10;1.40;;;;;;;11.76;100.00;99434.03;108885;1253;75396;-51
2023/10/07 09:24:54;;;;;;;4.30;0.90;;;;;;;11.82;100.00;99422.54;104707;1254;67605;-52
2023/10/07 09:27:37;;;;;;;2.10;0.80;;;;;;;11.88;100.00;99426.19;105355;1256;71268;-52
2023/10/07 09:30:34;;;;;;;1.80;0.80;;;;;;;11.93;100.00;99411.45;107172;1259;62169;-52
2023/10/07 09:32:55;;;;;;;6.90;0.70;;;;;;;12.00;100.00;99407.84;104739;1253;60629;-52
2023/10/07 09:35:25;;;;;;;4.10;0.90;;;;;;;12.06;100.00;99397.02;106320;1254;73006;-51
2023/10/07 09:37:54;;;;;;;2.30;0.90;;;;;;;12.12;100.00;99407.64;104935;1254;67113;-53
2023/10/07 09:43:13;;;;;;;2.30;0.90;;;;;;;12.22;100.00;99399.81;104711;1259;60546;-52
2023/10/07 09:45:41;;;;;;;2.30;1.00;;;;;;;12.27;100.00;99389.31;104606;1253;60967;-52
2023/10/07 09:48:09;;;;;;;3.20;1.00;;;;;;;12.30;100.00;99390.88;104658;1254;73041;-52
2023/10/07 09:50:37;;;;;;;3.90;0.90;;;;;;;12.34;100.00;99384.38;104658;1256;64683;-51
2023/10/07 09:53:17;;;;;;;2.10;1.10;;;;;;;12.42;100.00;99383.86;104638;1254;71510;-51
2023/10/07 09:55:49;;;;;;;2.80;0.70;;;;;;;12.49;100.00;99380.13;104752;1254;61753;-50
2023/10/07 09:58:37;;;;;;;3.20;1.00;;;;;;;12.52;100.00;99372.76;106390;1256;59190;-52
2023/10/07 10:01:38;;;;;;;1.50;0.60;;;;;;;12.49;100.00;99364.50;104731;1259;74077;-51
2023/10/07 10:04:12;;;;;;;4.90;1.00;;;;;;;12.57;100.00;99356.83;105136;1260;66934;-52
2023/10/07 10:06:52;;;;;;;2.20;0.90;;;;;;;12.60;100.00;99349.07;105455;1254;72542;-51
2023/10/07 10:09:27;;;;;;;2.30;0.70;;;;;;;12.65;100.00;99336.37;104782;1253;63276;-50
2023/10/07 10:17:40;;;;;;;1.40;1.10;;;;;;;12.89;100.00;99319.31;104961;1259;65673;-50
2023/10/07 10:20:14;;;;;;;3.10;0.80;;;;;;;12.98;100.00;99308.08;105282;1257;71486;-52
2023/10/07 10:22:52;;;;;;;1.70;0.80;;;;;;;13.07;100.00;99295.45;105658;1259;62306;-52
2023/10/07 10:25:26;;;;;;;5.10;0.80;;;;;;;13.16;100.00;99283.51;105386;1258;60449;-53
2023/10/07 10:28:02;;;;;;;1.10;0.80;;;;;;;13.24;100.00;99276.14;104641;1260;74659;-51
2023/10/07 10:30:30;;;;;;;2.50;1.10;;;;;;;13.32;100.00;99270.21;104574;1254;69158;-50
2023/10/07 10:33:01;;;;;;;1.70;0.70;;;;;;;13.40;100.00;99263.90;104662;1254;73215;-50
2023/10/07 10:35:29;;;;;;;2.70;0.70;;;;;;;13.48;100.00;99255.41;105310;1254;60928;-51
2023/10/07 10:37:57;;;;;;;2.80;0.80;;;;;;;13.56;100.00;99252.48;104840;1259;60430;-53
2023/10/07 10:40:31;;;;;;;2.70;0.80;;;;;;;13.65;100.00;99244.29;105103;1259;72497;-51
2023/10/07 10:42:59;;;;;;;2.60;0.90;;;;;;;13.75;100.00;99242.33;106395;1256;67055;-51
2023/10/07 10:45:29;;;;;;;1.60;0.90;;;;;;;13.86;100.00;99243.58;104870;1258;72493;-52
2023/10/07 10:48:01;;;;;;;4.00;0.90;;;;;;;13.96;100.00;99250.97;104902;1256;61090;-53
2023/10/07 10:50:29;;;;;;;3.90;0.80;;;;;;;14.04;100.00;99251.45;105248;1257;60537;-49
2023/10/07 10:52:58;;;;;;;4.00;0.90;;;;;;;14.12;100.00;99247.52;105046;1254;72613;-51
2023/10/07 10:55:37;;;;;;;3.20;0.80;;;;;;;14.19;100.00;99247.52;105221;1256;69021;-51
2023/10/07 10:58:17;;;;;;;5.50;0.80;;;;;;;14.26;100.00;99240.88;105010;1254;72744;-51
2023/10/07 11:00:49;;;;;;;1.50;0.90;;;;;;;14.33;100.00;99236.39;105620;1254;60475;-52
2023/10/07 11:03:20;;;;;;;3.40;0.80;;;;;;;14.41;100.00;99236.08;105869;1257;60552;-51
2023/10/07 11:05:52;;;;;;;7.70;0.70;;;;;;;14.47;100.00;99236.38;104942;1259;73931;-50
2023/10/07 11:08:23;;;;;;;3.50;0.90;;;;;;;14.53;100.00;99229.59;104795;1259;65516;-50
2023/10/07 11:10:55;;;;;;;3.10;0.90;;;;;;;14.61;100.00;99225.36;104654;1254;71852;-52
2023/10/07 11:13:24;;;;;;;5.10;0.80;;;;;;;14.70;100.00;99224.03;105864;1254;60472;-50
2023/10/07 11:15:58;;;;;;;1.90;0.70;;;;;;;14.74;100.00;99215.95;108221;1256;60704;-53
2023/10/07 11:18:31;;;;;;;3.50;0.80;;;;;;;14.72;100.00;99212.44;105231;1254;75857;-50
2023/10/07 11:20:59;;;;;;;3.00;0.70;;;;;;;14.76;100.00;99206.59;106067;1254;65754;-53
2023/10/07 11:23:27;;;;;;;3.60;0.70;;;;;;;14.81;100.00;99204.44;105076;1254;72435;-51
2023/10/07 11:25:55;;;;;;;2.80;0.70;;;;;;;14.85;100.00;99200.83;106284;1257;60517;-53
2023/10/07 11:28:23;;;;;;;5.50;1.00;;;;;;;14.91;100.00;99203.84;104908;1256;60414;-53
2023/10/07 11:30:51;;;;;;;4.50;1.00;;;;;;;14.98;100.00;99206.59;104765;1260;74454;-51
2023/10/07 11:33:19;;;;;;;1.90;0.70;;;;;;;15.04;100.00;99209.85;105430;1256;67445;-52
2023/10/07 11:35:58;;;;;;;8.00;0.70;;;;;;;15.13;100.00;99205.80;105008;1256;72688;-52
2023/10/07 11:38:26;;;;;;;5.30;1.00;;;;;;;15.23;100.00;99210.61;105900;1254;60493;-52
2023/10/07 11:40:55;;;;;;;5.10;0.80;;;;;;;15.29;100.00;99203.67;106511;1254;60635;-52
2023/10/07 11:43:23;;;;;;;3.00;0.90;;;;;;;15.33;100.00;99209.16;109049;1254;74294;-52
2023/10/07 11:45:50;;;;;;;1.90;0.90;;;;;;;15.35;100.00;99210.98;105452;1254;67011;-52
2023/10/07 11:48:21;;;;;;;3.00;0.70;;;;;;;15.39;100.00;99211.73;109061;1254;73156;-52
2023/10/07 11:50:49;;;;;;;3.30;0.80;;;;;;;15.41;100.00;99213.55;108490;1252;60565;-52
2023/10/07 11:53:19;;;;;;;3.00;0.60;;;;;;;15.43;100.00;99217.97;105082;1259;60565;-53
2023/10/07 11:55:47;;;;;;;3.40;0.80;;;;;;;15.45;100.00;99215.08;105105;1253;72630;-51
2023/10/07 11:58:15;;;;;;;2.60;0.60;;;;;;;15.49;100.00;99215.88;104851;1255;66311;-50
2023/10/07 12:00:43;;;;;;;3.90;0.60;;;;;;;15.54;100.00;99222.94;109007;1252;71480;-53
2023/10/07 12:03:10;;;;;;;5.20;0.70;;;;;;;15.58;100.00;99225.36;109073;1257;60555;-52
2023/10/07 12:05:43;;;;;;;3.90;0.80;;;;;;;15.61;100.00;99235.06;108949;1254;62252;-51
2023/10/07 12:08:14;;;;;;;3.20;1.00;;;;;;;15.63;100.00;99242.48;108944;1253;72701;-51
2023/10/07 12:10:41;;;;;;;4.20;0.70;;;;;;;15.63;100.00;99245.16;108962;1254;67301;-51
2023/10/07 12:13:11;;;;;;;5.40;0.60;;;;;;;15.63;100.00;99236.36;107517;1256;71902;-51
2023/10/07 12:15:42;;;;;;;3.80;0.60;;;;;;;15.61;100.00;99235.73;109044;1254;60561;-52
2023/10/07 12:18:27;;;;;;;4.70;0.70;;;;;;;15.60;100.00;99227.90;109051;1253;59193;-53
2023/10/07 12:20:56;;;;;;;7.60;0.60;;;;;;;15.59;100.00;99225.76;108998;1253;72001;-53
2023/10/07 12:23:23;;;;;;;4.50;0.60;;;;;;;15.60;100.00;99219.91;108270;1256;66881;-51
2023/10/07 12:25:50;;;;;;;0.90;0.50;;;;;;;15.61;100.00;99216.02;108354;1254;73417;-52
2023/10/07 12:28:18;;;;;;;1.40;0.60;;;;;;;15.63;100.00;99206.66;105042;1259;60541;-52
2023/10/07 12:30:49;;;;;;;2.80;0.50;;;;;;;15.64;100.00;99206.75;104946;1259;60461;-52
2023/10/07 12:33:16;;;;;;;1.30;0.60;;;;;;;15.66;100.00;99196.49;104982;1257;73924;-50
2023/10/07 12:36:11;;;;;;;2.70;0.60;;;;;;;15.67;100.00;99187.91;104892;1254;65570;-53
2023/10/07 12:38:38;;;;;;;1.60;0.60;;;;;;;15.67;100.00;99201.98;105483;1254;73129;-53
2023/10/07 12:41:07;;;;;;;1.70;0.50;;;;;;;15.67;100.00;99205.84;104909;1259;60864;-53
2023/10/07 12:43:35;;;;;;;2.50;0.80;;;;;;;15.66;100.00;99205.49;105048;1253;60517;-51
2023/10/07 12:46:02;;;;;;;6.90;0.60;;;;;;;15.66;100.00;99203.69;104659;1259;74241;-51